Time;durP1;ratioP1;P1;durP2;ratioP2;P2;SDS_P1;SDS_P2;PMS_P1;PMS_P2;Temp;Humidity;BMP_temperature;BMP_pressure;BME280_temperature;BME280_humidity;BME280_pressure;Samples;Min_cycle;Max_cycle;Signal;HPM_P1;HPM_P2
2022/03/31 00:00:05;;;;;;;3.90;2.53;;;;;;;;;;5149181;27;20026;-73
2022/03/31 00:02:31;;;;;;;5.15;2.88;;;;;;;;;;5122308;27;20123;-71
2022/03/31 00:04:57;;;;;;;6.20;2.50;;;;;;;;;;5128157;27;20105;-72
2022/03/31 00:07:23;;;;;;;4.85;2.38;;;;;;;;;;5105664;27;20121;-73
2022/03/31 00:09:48;;;;;;;2.83;2.10;;;;;;;;;;5148861;27;20748;-73
2022/03/31 00:12:15;;;;;;;4.32;2.22;;;;;;;;;;5146844;27;20404;-71
2022/03/31 00:14:40;;;;;;;3.55;2.30;;;;;;;;;;5127713;27;20206;-72
2022/03/31 00:17:05;;;;;;;4.35;2.33;;;;;;;;;;5144268;27;20393;-72
2022/03/31 00:19:31;;;;;;;3.35;2.30;;;;;;;;;;5127202;27;20045;-71
2022/03/31 00:21:56;;;;;;;2.42;2.20;;;;;;;;;;5141321;27;20030;-71
2022/03/31 00:24:21;;;;;;;3.78;2.40;;;;;;;;;;5126273;27;20415;-71
2022/03/31 00:26:47;;;;;;;5.05;2.72;;;;;;;;;;5126051;27;20122;-71
2022/03/31 00:29:12;;;;;;;3.42;2.30;;;;;;;;;;5127990;27;20083;-71
2022/03/31 00:31:39;;;;;;;4.43;2.00;;;;;;;;;;5144539;27;20022;-70
2022/03/31 00:34:04;;;;;;;2.65;2.15;;;;;;;;;;5125922;27;20050;-71
2022/03/31 00:36:29;;;;;;;2.97;2.25;;;;;;;;;;5123343;27;20042;-70
2022/03/31 00:41:39;;;;;;;5.50;2.33;;;;;;;;;;5143122;27;20341;-69
2022/03/31 00:44:05;;;;;;;5.80;2.60;;;;;;;;;;5146294;27;20023;-70
2022/03/31 00:46:30;;;;;;;4.35;2.22;;;;;;;;;;5143949;27;20095;-70
2022/03/31 00:48:55;;;;;;;3.30;2.58;;;;;;;;;;5124576;27;20327;-70
2022/03/31 00:51:22;;;;;;;3.95;2.60;;;;;;;;;;5124144;27;20538;-70
2022/03/31 00:53:47;;;;;;;3.58;2.70;;;;;;;;;;5090547;27;20023;-70
2022/03/31 00:56:12;;;;;;;3.63;2.60;;;;;;;;;;5126645;27;20334;-71
2022/03/31 00:58:37;;;;;;;5.50;2.67;;;;;;;;;;5124767;27;20156;-70
2022/03/31 01:01:03;;;;;;;3.67;2.55;;;;;;;;;;5106623;27;20027;-70
2022/03/31 01:03:28;;;;;;;4.22;2.95;;;;;;;;;;5120956;27;20096;-71
2022/03/31 01:05:54;;;;;;;4.00;2.72;;;;;;;;;;5144401;27;20114;-70
2022/03/31 01:08:21;;;;;;;4.57;2.72;;;;;;;;;;5126681;27;20066;-70
2022/03/31 01:10:49;;;;;;;4.38;2.60;;;;;;;;;;5108780;27;20130;-71
2022/03/31 01:13:14;;;;;;;4.30;2.60;;;;;;;;;;5128689;27;20018;-70
2022/03/31 01:15:39;;;;;;;5.65;2.90;;;;;;;;;;5126973;27;20171;-70
2022/03/31 01:18:05;;;;;;;7.03;2.67;;;;;;;;;;5125443;27;20054;-70
2022/03/31 01:20:30;;;;;;;3.63;2.90;;;;;;;;;;5139760;27;20064;-71
2022/03/31 01:22:56;;;;;;;6.15;3.03;;;;;;;;;;5105472;27;20027;-70
2022/03/31 01:25:22;;;;;;;4.80;2.95;;;;;;;;;;5106584;27;20485;-70
2022/03/31 01:27:48;;;;;;;3.63;2.92;;;;;;;;;;5105468;27;20161;-70
2022/03/31 01:30:14;;;;;;;6.20;3.30;;;;;;;;;;5107990;27;20125;-70
2022/03/31 01:32:40;;;;;;;4.15;2.67;;;;;;;;;;5103671;27;20137;-71
2022/03/31 01:35:06;;;;;;;3.72;2.78;;;;;;;;;;5125356;27;20191;-70
2022/03/31 01:37:31;;;;;;;5.13;2.80;;;;;;;;;;5140069;27;20465;-70
2022/03/31 01:39:56;;;;;;;3.25;2.85;;;;;;;;;;5146215;27;20027;-70
2022/03/31 01:42:23;;;;;;;3.75;2.80;;;;;;;;;;5146327;27;20047;-71
2022/03/31 01:44:49;;;;;;;3.67;2.80;;;;;;;;;;5125585;27;20026;-72
2022/03/31 01:47:14;;;;;;;4.50;2.95;;;;;;;;;;5141619;27;20031;-72
2022/03/31 01:49:40;;;;;;;3.60;2.72;;;;;;;;;;5143631;27;20261;-72
2022/03/31 01:52:06;;;;;;;5.13;2.67;;;;;;;;;;5121033;27;20231;-71
2022/03/31 01:54:31;;;;;;;3.85;2.88;;;;;;;;;;5143643;27;20075;-71
2022/03/31 01:56:57;;;;;;;5.05;2.50;;;;;;;;;;5143241;27;20460;-71
2022/03/31 01:59:23;;;;;;;4.78;2.67;;;;;;;;;;5144600;27;20034;-71
2022/03/31 02:01:49;;;;;;;5.07;2.85;;;;;;;;;;5104777;27;20271;-71
2022/03/31 02:04:18;;;;;;;4.47;2.83;;;;;;;;;;5108812;27;20121;-70
2022/03/31 02:06:44;;;;;;;3.92;2.80;;;;;;;;;;5120519;27;20424;-70
2022/03/31 02:09:10;;;;;;;5.22;3.40;;;;;;;;;;5087247;27;20826;-70
2022/03/31 02:11:35;;;;;;;4.70;3.05;;;;;;;;;;5101788;27;20029;-72
2022/03/31 02:14:00;;;;;;;6.45;3.55;;;;;;;;;;5123048;27;20039;-69
2022/03/31 02:16:26;;;;;;;6.07;3.90;;;;;;;;;;5087581;27;20051;-69
2022/03/31 02:18:52;;;;;;;5.35;3.45;;;;;;;;;;5101595;27;20309;-70
2022/03/31 02:21:17;;;;;;;5.25;3.83;;;;;;;;;;5121225;27;20079;-71
2022/03/31 02:23:43;;;;;;;7.20;4.22;;;;;;;;;;5101547;27;20043;-70
2022/03/31 02:26:08;;;;;;;7.22;4.32;;;;;;;;;;5104998;27;20039;-70
2022/03/31 02:28:33;;;;;;;7.60;3.40;;;;;;;;;;5101900;27;20023;-70
2022/03/31 02:30:58;;;;;;;3.97;3.38;;;;;;;;;;5127558;27;20418;-70
2022/03/31 02:33:23;;;;;;;5.20;3.95;;;;;;;;;;5123665;27;20022;-70
2022/03/31 02:35:49;;;;;;;5.28;3.60;;;;;;;;;;5140511;27;20054;-70
2022/03/31 02:38:14;;;;;;;6.95;3.78;;;;;;;;;;5143240;27;20460;-70
2022/03/31 02:40:42;;;;;;;4.78;3.40;;;;;;;;;;5142009;27;20417;-70
2022/03/31 02:43:12;;;;;;;5.03;3.83;;;;;;;;;;5143995;27;20047;-71
2022/03/31 02:45:37;;;;;;;6.60;3.75;;;;;;;;;;5121865;27;20346;-70
2022/03/31 02:48:03;;;;;;;5.88;3.30;;;;;;;;;;5124071;27;20241;-70
2022/03/31 02:50:29;;;;;;;4.28;3.20;;;;;;;;;;5122820;27;20042;-71
2022/03/31 02:55:38;;;;;;;4.47;3.55;;;;;;;;;;5141877;27;20038;-71
2022/03/31 02:58:04;;;;;;;4.43;2.92;;;;;;;;;;5145493;27;20019;-71
2022/03/31 03:00:32;;;;;;;5.13;3.50;;;;;;;;;;5142390;27;20031;-71
2022/03/31 03:02:58;;;;;;;5.30;3.40;;;;;;;;;;5121719;27;20033;-71
2022/03/31 03:05:23;;;;;;;5.15;3.60;;;;;;;;;;5140660;27;20033;-71
2022/03/31 03:07:48;;;;;;;4.57;3.10;;;;;;;;;;5114168;27;20019;-70
2022/03/31 03:10:14;;;;;;;4.70;3.17;;;;;;;;;;5123005;27;20429;-71
2022/03/31 03:12:41;;;;;;;5.30;3.10;;;;;;;;;;5113337;27;20469;-71
2022/03/31 03:15:07;;;;;;;5.65;3.28;;;;;;;;;;5143832;27;20095;-71
2022/03/31 03:17:33;;;;;;;5.55;2.70;;;;;;;;;;5123053;27;20414;-70
2022/03/31 03:19:59;;;;;;;4.03;3.40;;;;;;;;;;5123343;27;20034;-71
2022/03/31 03:22:26;;;;;;;5.80;3.30;;;;;;;;;;5105426;27;20035;-70
2022/03/31 03:24:52;;;;;;;5.55;3.17;;;;;;;;;;5127529;27;20030;-72
2022/03/31 03:27:18;;;;;;;3.58;3.15;;;;;;;;;;5106044;27;20541;-71
2022/03/31 03:29:46;;;;;;;5.32;2.92;;;;;;;;;;5126215;27;20027;-71
2022/03/31 03:32:15;;;;;;;5.80;3.70;;;;;;;;;;5106152;27;20031;-71
2022/03/31 03:34:40;;;;;;;5.22;3.30;;;;;;;;;;5107508;27;20431;-71
2022/03/31 03:37:06;;;;;;;4.07;3.20;;;;;;;;;;5104026;27;20669;-70
2022/03/31 03:39:33;;;;;;;6.25;3.22;;;;;;;;;;5110239;27;20473;-71
2022/03/31 03:41:58;;;;;;;4.55;3.22;;;;;;;;;;5106615;27;20440;-72
2022/03/31 03:44:24;;;;;;;6.20;3.50;;;;;;;;;;5127113;27;20477;-72
2022/03/31 03:46:52;;;;;;;6.55;3.90;;;;;;;;;;5105754;27;20024;-70
2022/03/31 03:49:18;;;;;;;5.68;3.67;;;;;;;;;;5108875;27;20606;-71
2022/03/31 03:51:43;;;;;;;5.82;3.75;;;;;;;;;;5122763;27;20496;-71
2022/03/31 03:54:09;;;;;;;6.60;4.38;;;;;;;;;;5124969;27;20122;-72
2022/03/31 03:56:35;;;;;;;7.70;4.15;;;;;;;;;;5106365;27;20080;-71
2022/03/31 03:59:00;;;;;;;6.70;4.35;;;;;;;;;;5088474;27;20118;-71
2022/03/31 04:01:25;;;;;;;7.40;4.53;;;;;;;;;;5109037;27;20114;-72
2022/03/31 04:03:51;;;;;;;6.35;4.57;;;;;;;;;;5086856;27;20030;-72
2022/03/31 04:06:16;;;;;;;7.72;4.68;;;;;;;;;;5090901;27;20169;-72
2022/03/31 04:08:41;;;;;;;11.40;4.97;;;;;;;;;;5088626;27;20393;-72
2022/03/31 04:11:06;;;;;;;7.80;4.65;;;;;;;;;;5138918;27;20023;-72
2022/03/31 04:13:32;;;;;;;9.63;5.03;;;;;;;;;;5147748;27;20018;-72
2022/03/31 04:15:57;;;;;;;9.77;5.35;;;;;;;;;;5126456;27;20164;-71
2022/03/31 04:18:22;;;;;;;9.50;5.25;;;;;;;;;;5127213;27;20113;-72
2022/03/31 04:20:47;;;;;;;9.75;4.82;;;;;;;;;;5143456;27;20029;-72
2022/03/31 04:23:13;;;;;;;9.05;5.00;;;;;;;;;;5144712;27;20030;-72
2022/03/31 04:25:39;;;;;;;6.80;4.30;;;;;;;;;;5126066;27;20034;-72
2022/03/31 04:28:04;;;;;;;6.75;4.75;;;;;;;;;;5128544;27;20027;-72
2022/03/31 04:30:29;;;;;;;8.55;5.65;;;;;;;;;;5128011;27;20058;-71
2022/03/31 04:32:55;;;;;;;7.35;4.63;;;;;;;;;;5143005;27;20792;-71
2022/03/31 04:35:20;;;;;;;8.25;5.05;;;;;;;;;;5124262;27;20539;-74
2022/03/31 04:37:46;;;;;;;8.75;4.68;;;;;;;;;;5100243;27;20454;-73
2022/03/31 04:40:11;;;;;;;6.00;4.72;;;;;;;;;;5125246;27;20023;-72
2022/03/31 04:42:37;;;;;;;9.50;5.15;;;;;;;;;;5125433;27;20051;-72
2022/03/31 04:45:03;;;;;;;7.07;5.20;;;;;;;;;;5104684;27;20602;-72
2022/03/31 04:47:29;;;;;;;10.48;4.60;;;;;;;;;;5124420;27;20054;-72
2022/03/31 04:49:55;;;;;;;9.02;4.60;;;;;;;;;;5123534;27;20027;-72
2022/03/31 04:52:21;;;;;;;11.82;4.97;;;;;;;;;;5086911;27;20203;-72
2022/03/31 04:54:47;;;;;;;6.82;4.40;;;;;;;;;;5106042;27;20115;-72
2022/03/31 04:57:13;;;;;;;8.23;4.63;;;;;;;;;;5105768;27;20016;-72
2022/03/31 04:59:39;;;;;;;9.15;4.70;;;;;;;;;;5107484;27;20058;-71
2022/03/31 05:02:05;;;;;;;8.23;4.72;;;;;;;;;;5103192;27;20682;-73
2022/03/31 05:04:30;;;;;;;7.78;4.25;;;;;;;;;;5125038;27;20061;-72
2022/03/31 05:06:55;;;;;;;8.75;4.20;;;;;;;;;;5119824;27;20027;-71
2022/03/31 05:09:21;;;;;;;10.73;4.55;;;;;;;;;;5107979;27;20404;-72
2022/03/31 05:11:47;;;;;;;9.50;4.38;;;;;;;;;;5089278;27;20023;-72
2022/03/31 05:14:15;;;;;;;7.25;3.78;;;;;;;;;;5090790;27;20038;-72
2022/03/31 05:16:41;;;;;;;8.18;4.43;;;;;;;;;;5124144;27;20023;-72
2022/03/31 05:19:08;;;;;;;7.93;4.40;;;;;;;;;;5109755;27;20448;-71
2022/03/31 05:21:33;;;;;;;8.52;4.20;;;;;;;;;;5131375;27;20023;-73
2022/03/31 05:23:58;;;;;;;11.15;4.35;;;;;;;;;;5089773;27;20091;-73
2022/03/31 05:26:24;;;;;;;8.35;4.50;;;;;;;;;;5093018;27;20022;-72
2022/03/31 05:28:49;;;;;;;10.00;4.80;;;;;;;;;;5142968;27;20033;-74
2022/03/31 05:31:14;;;;;;;7.90;4.22;;;;;;;;;;5124991;27;20396;-73
2022/03/31 05:33:40;;;;;;;8.13;4.43;;;;;;;;;;5143264;27;20496;-72
2022/03/31 05:36:05;;;;;;;9.57;4.43;;;;;;;;;;5124832;27;20054;-74
2022/03/31 05:38:30;;;;;;;9.52;4.57;;;;;;;;;;5122990;27;20011;-72
2022/03/31 05:41:00;;;;;;;12.70;4.65;;;;;;;;;;5104113;27;21630;-75
2022/03/31 05:43:25;;;;;;;9.95;4.93;;;;;;;;;;5107351;27;20037;-73
2022/03/31 05:45:51;;;;;;;6.88;4.20;;;;;;;;;;5104382;27;20039;-73
2022/03/31 05:48:16;;;;;;;7.35;4.35;;;;;;;;;;5089196;27;20354;-72
2022/03/31 05:50:41;;;;;;;8.27;4.60;;;;;;;;;;5128848;27;20023;-72
2022/03/31 05:53:07;;;;;;;9.95;4.18;;;;;;;;;;5143095;27;20153;-72
2022/03/31 05:55:32;;;;;;;8.07;4.13;;;;;;;;;;5146098;27;20437;-73
2022/03/31 05:57:58;;;;;;;7.50;4.22;;;;;;;;;;5144716;27;20487;-72
2022/03/31 06:00:23;;;;;;;11.43;5.72;;;;;;;;;;5145587;27;20058;-72
2022/03/31 06:02:49;;;;;;;10.02;4.97;;;;;;;;;;5116963;27;20015;-73
2022/03/31 06:05:15;;;;;;;6.32;4.53;;;;;;;;;;5122327;27;20023;-74
2022/03/31 06:07:40;;;;;;;9.02;5.05;;;;;;;;;;5088500;27;20335;-73
2022/03/31 06:10:06;;;;;;;9.02;4.80;;;;;;;;;;5111262;27;20080;-73
2022/03/31 06:12:31;;;;;;;8.45;4.88;;;;;;;;;;5141195;27;20037;-73
2022/03/31 06:14:57;;;;;;;9.48;5.15;;;;;;;;;;5133544;27;20019;-73
2022/03/31 06:17:22;;;;;;;9.65;4.68;;;;;;;;;;5105799;27;20069;-72
2022/03/31 06:19:48;;;;;;;8.95;4.88;;;;;;;;;;5123307;27;20477;-73
2022/03/31 06:22:13;;;;;;;8.23;5.13;;;;;;;;;;5122024;27;20022;-73
2022/03/31 06:24:39;;;;;;;7.18;4.63;;;;;;;;;;5144624;27;20445;-73
2022/03/31 06:27:06;;;;;;;9.38;5.07;;;;;;;;;;5123998;27;20497;-73
2022/03/31 06:29:31;;;;;;;9.52;5.57;;;;;;;;;;5126408;27;20361;-73
2022/03/31 06:31:57;;;;;;;7.85;5.10;;;;;;;;;;5141940;27;20029;-73
2022/03/31 06:34:23;;;;;;;9.27;5.10;;;;;;;;;;5125532;27;20029;-73
2022/03/31 06:36:49;;;;;;;9.73;5.90;;;;;;;;;;5142098;27;20019;-73
2022/03/31 06:39:14;;;;;;;6.18;5.00;;;;;;;;;;5124650;27;20026;-74
2022/03/31 06:41:40;;;;;;;11.45;5.50;;;;;;;;;;5143332;27;20281;-72
2022/03/31 06:44:08;;;;;;;9.95;5.65;;;;;;;;;;5141616;27;20072;-73
2022/03/31 06:46:34;;;;;;;8.70;4.97;;;;;;;;;;5125417;27;20054;-73
2022/03/31 06:49:00;;;;;;;11.48;5.85;;;;;;;;;;5105391;27;20022;-72
2022/03/31 06:51:25;;;;;;;12.30;5.57;;;;;;;;;;5141706;27;20083;-73
2022/03/31 06:53:51;;;;;;;8.85;5.68;;;;;;;;;;5123952;27;20015;-73
2022/03/31 06:56:18;;;;;;;9.35;5.18;;;;;;;;;;5125980;27;20156;-73
2022/03/31 06:58:44;;;;;;;7.93;5.15;;;;;;;;;;5108300;27;20019;-73
2022/03/31 07:01:09;;;;;;;7.20;4.68;;;;;;;;;;5105740;27;20443;-73
2022/03/31 07:03:35;;;;;;;8.05;4.88;;;;;;;;;;5087872;27;20019;-73
2022/03/31 07:06:01;;;;;;;9.18;4.65;;;;;;;;;;5128939;27;20041;-73
2022/03/31 07:08:26;;;;;;;8.70;4.88;;;;;;;;;;5122724;27;20414;-72
2022/03/31 07:10:55;;;;;;;7.43;5.15;;;;;;;;;;5120887;27;20022;-72
2022/03/31 07:13:20;;;;;;;10.07;5.00;;;;;;;;;;5126091;27;20036;-72
2022/03/31 07:15:46;;;;;;;8.18;4.93;;;;;;;;;;5126047;27;20343;-72
2022/03/31 07:18:11;;;;;;;8.00;4.72;;;;;;;;;;5123139;27;20022;-72
2022/03/31 07:20:36;;;;;;;9.05;4.68;;;;;;;;;;5125067;27;20122;-72
2022/03/31 07:23:02;;;;;;;6.78;4.55;;;;;;;;;;5123454;27;20061;-73
2022/03/31 07:25:28;;;;;;;8.85;4.88;;;;;;;;;;5143899;27;20482;-72
2022/03/31 07:27:54;;;;;;;7.80;4.90;;;;;;;;;;5104150;27;20469;-73
2022/03/31 07:30:20;;;;;;;10.27;7.35;;;;;;;;;;5126074;27;20044;-72
2022/03/31 07:32:51;;;;;;;10.27;8.25;;;;;;;;;;5127268;27;20031;-72
2022/03/31 07:35:16;;;;;;;10.77;9.07;;;;;;;;;;5103802;27;20033;-72
2022/03/31 07:37:42;;;;;;;11.88;8.05;;;;;;;;;;5122816;27;20036;-73
2022/03/31 07:40:07;;;;;;;9.00;7.05;;;;;;;;;;5086910;27;20035;-72
2022/03/31 07:42:33;;;;;;;9.63;7.47;;;;;;;;;;5103818;27;20043;-73
2022/03/31 07:44:58;;;;;;;9.25;7.90;;;;;;;;;;5121844;27;20066;-72
2022/03/31 07:47:23;;;;;;;10.82;7.15;;;;;;;;;;5106634;27;20019;-71
2022/03/31 07:49:49;;;;;;;10.55;7.18;;;;;;;;;;5125863;27;20035;-72
2022/03/31 07:52:14;;;;;;;7.35;6.75;;;;;;;;;;5103584;27;20127;-72
2022/03/31 07:54:40;;;;;;;7.22;6.50;;;;;;;;;;5109375;27;20160;-71
2022/03/31 07:57:05;;;;;;;9.05;6.80;;;;;;;;;;5122316;27;20019;-72
2022/03/31 07:59:33;;;;;;;9.57;5.93;;;;;;;;;;5144700;27;20350;-72
2022/03/31 08:01:59;;;;;;;5.15;4.70;;;;;;;;;;5120432;27;20030;-72
2022/03/31 08:04:24;;;;;;;6.65;4.50;;;;;;;;;;5143258;27;20011;-72
2022/03/31 08:06:51;;;;;;;5.60;4.10;;;;;;;;;;5131051;27;20102;-74
2022/03/31 08:09:20;;;;;;;7.10;4.38;;;;;;;;;;5086607;27;20447;-74
2022/03/31 08:11:46;;;;;;;5.90;4.75;;;;;;;;;;5107440;27;20095;-72
2022/03/31 08:14:12;;;;;;;5.40;4.30;;;;;;;;;;5105513;27;20418;-73
2022/03/31 08:16:37;;;;;;;5.90;4.40;;;;;;;;;;5107455;27;20019;-73
2022/03/31 08:19:02;;;;;;;8.45;4.82;;;;;;;;;;5088705;27;20038;-74
2022/03/31 08:21:27;;;;;;;5.70;4.75;;;;;;;;;;5126471;27;20026;-74
2022/03/31 08:23:53;;;;;;;4.80;4.40;;;;;;;;;;5122731;27;20023;-74
2022/03/31 08:26:18;;;;;;;5.18;4.50;;;;;;;;;;5123472;27;20810;-74
2022/03/31 08:28:44;;;;;;;5.75;5.00;;;;;;;;;;5126258;27;20023;-72
2022/03/31 08:31:09;;;;;;;6.82;4.80;;;;;;;;;;5123386;27;20110;-74
2022/03/31 08:33:35;;;;;;;5.82;4.40;;;;;;;;;;5146258;27;20383;-75
2022/03/31 08:36:00;;;;;;;6.07;4.65;;;;;;;;;;5108148;27;20038;-73
2022/03/31 08:38:26;;;;;;;6.60;4.72;;;;;;;;;;5113329;27;20023;-74
2022/03/31 08:40:53;;;;;;;5.88;4.05;;;;;;;;;;5105848;27;20019;-73
2022/03/31 08:43:19;;;;;;;6.32;3.95;;;;;;;;;;5109063;27;20415;-73
2022/03/31 08:45:46;;;;;;;5.90;3.55;;;;;;;;;;5110109;27;20019;-73
2022/03/31 08:48:11;;;;;;;4.70;4.00;;;;;;;;;;5124384;27;20019;-74
2022/03/31 08:50:37;;;;;;;5.07;4.05;;;;;;;;;;5107342;27;20096;-76
2022/03/31 08:53:03;;;;;;;4.30;3.67;;;;;;;;;;5111205;27;20219;-74
2022/03/31 08:55:28;;;;;;;4.63;3.67;;;;;;;;;;5090892;27;20028;-76
2022/03/31 08:57:54;;;;;;;3.85;3.55;;;;;;;;;;5145398;27;20049;-74
2022/03/31 09:00:21;;;;;;;5.07;3.42;;;;;;;;;;5143849;27;20079;-73
2022/03/31 09:02:56;;;;;;;5.03;3.08;;;;;;;;;;5112543;27;20495;-75
2022/03/31 09:05:21;;;;;;;3.10;2.90;;;;;;;;;;5104623;27;20061;-71
2022/03/31 09:08:00;;;;;;;3.72;3.03;;;;;;;;;;5122854;27;20019;-73
2022/03/31 09:10:26;;;;;;;4.97;3.20;;;;;;;;;;5088920;27;20158;-71
2022/03/31 09:12:51;;;;;;;5.28;3.50;;;;;;;;;;5124830;27;20023;-71
2022/03/31 09:15:17;;;;;;;4.22;2.70;;;;;;;;;;5144169;27;20026;-70
2022/03/31 09:17:42;;;;;;;2.90;2.70;;;;;;;;;;5128602;27;20023;-71
2022/03/31 09:20:07;;;;;;;2.88;2.42;;;;;;;;;;5122368;27;20055;-71
2022/03/31 09:22:46;;;;;;;4.18;2.63;;;;;;;;;;5121928;27;20050;-71
2022/03/31 09:25:11;;;;;;;2.80;2.50;;;;;;;;;;5112265;27;20396;-72
2022/03/31 09:27:36;;;;;;;2.42;2.22;;;;;;;;;;5131766;27;20037;-72
2022/03/31 09:30:08;;;;;;;2.95;2.20;;;;;;;;;;5129079;27;20071;-72
2022/03/31 09:32:33;;;;;;;2.75;2.55;;;;;;;;;;5087247;27;20035;-71
2022/03/31 09:35:05;;;;;;;2.70;2.33;;;;;;;;;;5124534;27;20022;-70
2022/03/31 09:37:31;;;;;;;2.65;2.45;;;;;;;;;;5125713;27;20471;-71
2022/03/31 09:39:57;;;;;;;3.60;2.70;;;;;;;;;;5145433;27;20026;-71
2022/03/31 09:42:22;;;;;;;2.95;2.67;;;;;;;;;;5112455;27;20122;-70
2022/03/31 09:44:58;;;;;;;4.80;2.90;;;;;;;;;;5125166;27;20019;-71
2022/03/31 09:47:23;;;;;;;3.45;3.15;;;;;;;;;;5122040;27;20069;-72
2022/03/31 09:49:53;;;;;;;3.10;2.90;;;;;;;;;;5127196;27;20469;-71
2022/03/31 09:52:19;;;;;;;3.60;3.30;;;;;;;;;;5120496;27;20105;-70
2022/03/31 09:54:46;;;;;;;4.07;3.42;;;;;;;;;;5146194;27;20098;-71
2022/03/31 09:57:11;;;;;;;5.60;3.17;;;;;;;;;;5124290;27;20485;-70
2022/03/31 09:59:42;;;;;;;4.13;3.45;;;;;;;;;;5124559;27;20014;-71
2022/03/31 10:02:08;;;;;;;4.75;3.47;;;;;;;;;;5101348;27;20537;-71
2022/03/31 10:04:34;;;;;;;3.60;3.30;;;;;;;;;;5103968;27;20047;-69
2022/03/31 10:06:59;;;;;;;3.92;3.53;;;;;;;;;;5119916;27;20439;-69
2022/03/31 10:09:25;;;;;;;3.42;3.20;;;;;;;;;;5124449;27;20363;-70
2022/03/31 10:11:57;;;;;;;3.65;3.35;;;;;;;;;;5103826;27;20522;-70
2022/03/31 10:14:23;;;;;;;3.45;3.15;;;;;;;;;;5103621;27;20480;-69
2022/03/31 10:16:55;;;;;;;3.67;3.38;;;;;;;;;;5122313;27;20102;-70
2022/03/31 10:19:26;;;;;;;3.67;3.38;;;;;;;;;;5102529;27;20030;-70
2022/03/31 10:22:05;;;;;;;4.35;3.80;;;;;;;;;;5121762;27;20033;-70
2022/03/31 10:24:46;;;;;;;4.53;3.75;;;;;;;;;;5104247;27;20059;-69
2022/03/31 10:27:26;;;;;;;4.15;3.75;;;;;;;;;;5126745;27;20026;-70
2022/03/31 10:29:52;;;;;;;3.70;3.40;;;;;;;;;;5144243;27;20571;-70
2022/03/31 10:32:21;;;;;;;3.67;3.38;;;;;;;;;;5120497;27;20026;-70
2022/03/31 10:34:48;;;;;;;3.70;3.40;;;;;;;;;;5143275;27;20117;-68
2022/03/31 10:37:15;;;;;;;3.40;3.10;;;;;;;;;;5134318;27;20027;-69
2022/03/31 10:39:49;;;;;;;4.20;3.80;;;;;;;;;;5125506;27;20638;-70
2022/03/31 10:42:15;;;;;;;4.50;3.40;;;;;;;;;;5138993;27;20035;-68
2022/03/31 10:44:40;;;;;;;3.55;3.25;;;;;;;;;;5144944;27;20493;-69
2022/03/31 10:47:09;;;;;;;3.50;3.20;;;;;;;;;;5122728;27;20194;-69
2022/03/31 10:49:35;;;;;;;3.78;3.42;;;;;;;;;;5106766;27;20064;-70
2022/03/31 10:52:17;;;;;;;3.72;3.42;;;;;;;;;;5138768;27;20022;-70
2022/03/31 10:54:42;;;;;;;4.35;3.58;;;;;;;;;;5126824;27;20056;-68
2022/03/31 10:57:12;;;;;;;3.80;3.50;;;;;;;;;;5143409;27;20119;-70
2022/03/31 10:59:38;;;;;;;6.78;3.50;;;;;;;;;;5122105;27;20027;-71
2022/03/31 11:02:14;;;;;;;6.38;4.20;;;;;;;;;;5137012;27;20018;-68
2022/03/31 11:04:44;;;;;;;3.95;3.58;;;;;;;;;;5149163;27;20429;-68
2022/03/31 11:07:13;;;;;;;3.90;3.50;;;;;;;;;;5114704;27;20098;-69
2022/03/31 11:09:38;;;;;;;3.88;3.53;;;;;;;;;;5126715;27;20469;-69
2022/03/31 11:12:04;;;;;;;4.03;3.63;;;;;;;;;;5142418;27;20015;-69
2022/03/31 11:14:29;;;;;;;3.83;3.53;;;;;;;;;;5124411;27;20055;-70
2022/03/31 11:16:55;;;;;;;4.15;3.75;;;;;;;;;;5124038;27;20014;-70
2022/03/31 11:19:21;;;;;;;5.07;4.07;;;;;;;;;;5104907;27;20083;-69
2022/03/31 11:21:47;;;;;;;6.38;4.05;;;;;;;;;;5142458;27;20422;-68
2022/03/31 11:24:14;;;;;;;7.97;3.88;;;;;;;;;;5121773;27;20026;-69
2022/03/31 11:26:40;;;;;;;4.40;4.00;;;;;;;;;;5125352;27;20030;-68
2022/03/31 11:29:13;;;;;;;4.75;3.67;;;;;;;;;;5125124;27;20383;-69
2022/03/31 11:31:42;;;;;;;5.20;4.30;;;;;;;;;;5124598;27;20026;-69
2022/03/31 11:34:18;;;;;;;4.15;3.85;;;;;;;;;;5123272;27;20515;-69
2022/03/31 11:36:43;;;;;;;4.78;3.95;;;;;;;;;;5122431;27;20544;-70
2022/03/31 11:39:09;;;;;;;4.40;3.90;;;;;;;;;;5122574;27;20066;-69
2022/03/31 11:41:41;;;;;;;8.85;4.28;;;;;;;;;;5121892;27;20454;-70
2022/03/31 11:44:07;;;;;;;6.90;3.80;;;;;;;;;;5106756;27;20026;-70
2022/03/31 11:46:42;;;;;;;5.35;3.90;;;;;;;;;;5126766;27;20065;-70
2022/03/31 11:49:17;;;;;;;4.13;3.72;;;;;;;;;;5145171;27;20290;-69
2022/03/31 11:52:09;;;;;;;9.18;5.22;;;;;;;;;;5126759;27;20120;-70
2022/03/31 11:54:38;;;;;;;5.18;4.70;;;;;;;;;;5139883;27;20061;-70
2022/03/31 11:57:12;;;;;;;6.55;4.90;;;;;;;;;;5128088;27;20010;-71
2022/03/31 11:59:38;;;;;;;5.65;4.28;;;;;;;;;;5111703;27;20033;-68
2022/03/31 12:02:14;;;;;;;5.07;3.70;;;;;;;;;;5144483;27;20018;-69
2022/03/31 12:04:41;;;;;;;6.43;4.05;;;;;;;;;;5127474;27;20019;-68
2022/03/31 12:07:07;;;;;;;8.48;4.47;;;;;;;;;;5123623;27;20380;-69
2022/03/31 12:09:32;;;;;;;6.78;5.10;;;;;;;;;;5145665;27;20417;-68
2022/03/31 12:11:58;;;;;;;4.85;4.35;;;;;;;;;;5108007;27;20022;-68
2022/03/31 12:14:28;;;;;;;5.10;4.43;;;;;;;;;;5144667;27;20084;-69
2022/03/31 12:16:55;;;;;;;6.68;4.82;;;;;;;;;;5126118;27;20025;-69
2022/03/31 12:19:21;;;;;;;5.93;4.40;;;;;;;;;;5124928;27;20043;-69
2022/03/31 12:21:48;;;;;;;5.07;4.57;;;;;;;;;;5126355;27;20485;-68
2022/03/31 12:24:14;;;;;;;6.93;4.88;;;;;;;;;;5127098;27;20026;-68
2022/03/31 12:26:52;;;;;;;6.35;5.18;;;;;;;;;;5126100;27;20031;-68
2022/03/31 12:29:19;;;;;;;7.90;5.95;;;;;;;;;;5120463;27;20086;-74
2022/03/31 12:31:45;;;;;;;11.45;6.10;;;;;;;;;;5115703;27;20023;-76
2022/03/31 12:34:11;;;;;;;6.97;6.28;;;;;;;;;;5113674;27;20075;-77
2022/03/31 12:36:37;;;;;;;6.85;6.15;;;;;;;;;;5113581;27;20509;-78
2022/03/31 12:39:04;;;;;;;6.10;5.05;;;;;;;;;;5123171;27;20021;-78
2022/03/31 12:41:34;;;;;;;5.00;4.40;;;;;;;;;;5124061;27;20441;-78
2022/03/31 12:44:00;;;;;;;3.90;3.60;;;;;;;;;;5129165;27;20105;-77
2022/03/31 12:46:30;;;;;;;4.75;3.83;;;;;;;;;;5130479;27;20110;-77
2022/03/31 12:49:24;;;;;;;5.93;3.85;;;;;;;;;;5126481;27;20054;-77
2022/03/31 12:51:54;;;;;;;3.95;3.65;;;;;;;;;;5122715;27;20031;-74
2022/03/31 12:54:23;;;;;;;4.50;4.10;;;;;;;;;;5129351;27;20031;-78
2022/03/31 12:56:49;;;;;;;4.68;4.22;;;;;;;;;;5116436;27;20019;-78
2022/03/31 12:59:23;;;;;;;5.18;4.72;;;;;;;;;;5120767;27;20094;-78
2022/03/31 13:02:04;;;;;;;4.90;4.40;;;;;;;;;;5126397;27;20097;-77
2022/03/31 13:04:30;;;;;;;5.30;4.80;;;;;;;;;;5108722;27;20054;-74
2022/03/31 13:07:00;;;;;;;5.40;4.90;;;;;;;;;;5122878;27;20103;-74
2022/03/31 13:09:26;;;;;;;5.70;5.20;;;;;;;;;;5124907;27;20015;-73
2022/03/31 13:11:56;;;;;;;5.45;4.95;;;;;;;;;;5107696;27;20052;-76
2022/03/31 13:14:25;;;;;;;6.07;5.47;;;;;;;;;;5132282;27;20019;-74
2022/03/31 13:16:51;;;;;;;6.22;5.43;;;;;;;;;;5134400;27;20107;-75
2022/03/31 13:19:16;;;;;;;5.70;5.10;;;;;;;;;;5086832;27;20426;-78
2022/03/31 13:21:42;;;;;;;5.57;5.05;;;;;;;;;;5089216;27;20031;-76
2022/03/31 13:24:07;;;;;;;5.38;4.85;;;;;;;;;;5094344;27;20192;-77
2022/03/31 13:26:33;;;;;;;5.38;4.88;;;;;;;;;;5116883;27;20060;-78
2022/03/31 13:29:02;;;;;;;4.95;4.45;;;;;;;;;;5142100;27;20034;-73
2022/03/31 13:31:27;;;;;;;4.43;4.03;;;;;;;;;;5124766;27;20498;-76
2022/03/31 13:33:53;;;;;;;4.28;3.88;;;;;;;;;;5113991;27;20113;-72
2022/03/31 13:36:18;;;;;;;4.60;4.20;;;;;;;;;;5125581;27;20404;-75
2022/03/31 13:38:43;;;;;;;4.40;4.00;;;;;;;;;;5086898;27;20023;-78
2022/03/31 13:41:09;;;;;;;5.07;3.88;;;;;;;;;;5106468;27;20388;-73
2022/03/31 13:43:35;;;;;;;4.45;4.05;;;;;;;;;;5138154;27;20051;-76
2022/03/31 13:46:00;;;;;;;4.75;4.35;;;;;;;;;;5116230;27;20299;-70
2022/03/31 13:48:26;;;;;;;4.07;3.67;;;;;;;;;;5117902;27;20042;-69
2022/03/31 13:50:51;;;;;;;4.43;4.03;;;;;;;;;;5113054;27;20610;-68
2022/03/31 13:56:00;;;;;;;4.80;4.40;;;;;;;;;;5104134;27;20369;-71
2022/03/31 14:01:12;;;;;;;4.60;4.20;;;;;;;;;;5118140;27;20030;-70
2022/03/31 14:03:38;;;;;;;4.70;4.30;;;;;;;;;;5096544;27;20363;-70
2022/03/31 14:06:04;;;;;;;5.35;4.85;;;;;;;;;;5099074;27;20093;-70
2022/03/31 14:08:29;;;;;;;5.18;4.68;;;;;;;;;;5098185;27;20511;-69
2022/03/31 14:10:56;;;;;;;4.88;4.38;;;;;;;;;;5123123;27;20383;-70
2022/03/31 14:13:23;;;;;;;4.60;4.20;;;;;;;;;;5110640;27;20178;-70
2022/03/31 14:15:49;;;;;;;5.25;4.28;;;;;;;;;;5099904;27;20018;-69
2022/03/31 14:18:14;;;;;;;4.75;4.25;;;;;;;;;;5102256;27;20088;-70
2022/03/31 14:20:40;;;;;;;5.30;4.80;;;;;;;;;;5127292;27;20503;-77
2022/03/31 14:23:05;;;;;;;4.75;4.35;;;;;;;;;;5122676;27;20029;-77
2022/03/31 14:25:31;;;;;;;4.88;4.38;;;;;;;;;;5142450;27;20018;-76
2022/03/31 14:27:57;;;;;;;4.68;4.28;;;;;;;;;;5143255;27;20101;-77
2022/03/31 14:30:25;;;;;;;5.32;4.82;;;;;;;;;;5107651;27;20035;-78
2022/03/31 14:32:50;;;;;;;4.80;4.40;;;;;;;;;;5121829;27;20018;-77
2022/03/31 14:35:17;;;;;;;5.38;4.88;;;;;;;;;;5106867;27;20049;-79
2022/03/31 14:37:43;;;;;;;5.70;5.10;;;;;;;;;;5126104;27;20305;-77
2022/03/31 14:40:08;;;;;;;5.32;4.82;;;;;;;;;;5127028;27;20023;-75
2022/03/31 14:42:34;;;;;;;4.65;4.25;;;;;;;;;;5121617;27;20414;-77
2022/03/31 14:44:59;;;;;;;4.50;4.10;;;;;;;;;;5123638;27;20027;-77
2022/03/31 14:47:26;;;;;;;4.63;4.22;;;;;;;;;;5119345;27;20457;-79
2022/03/31 14:49:53;;;;;;;4.95;4.50;;;;;;;;;;5122693;27;20042;-77